createdAt,value
2022-10-18T08:30:24.672Z,101523.91
2022-10-18T08:32:28.544Z,101542.03
2022-10-18T08:34:30.834Z,101544.66
2022-10-18T08:36:33.149Z,101552.59
2022-10-18T08:38:37.607Z,101553.81
2022-10-18T08:40:44.483Z,101559.34
2022-10-18T08:42:46.644Z,101586.41
2022-10-18T08:44:51.759Z,101605.78
2022-10-18T08:47:07.077Z,101631.88
2022-10-18T08:49:19.371Z,101647.59
2022-10-18T08:51:38.853Z,101667.75
2022-10-18T08:53:51.987Z,101671.94
2022-10-18T08:56:11.048Z,101660.97
2022-10-18T08:58:19.305Z,101661.16
2022-10-18T09:00:25.680Z,101664.13
2022-10-18T09:02:37.393Z,101667.50
2022-10-18T09:04:57.574Z,101676.09
2022-10-18T09:07:18.443Z,101683.38
2022-10-18T09:09:56.065Z,101677.03
2022-10-18T09:12:05.961Z,101692.88
2022-10-18T09:14:33.983Z,101707.25
2022-10-18T09:16:54.510Z,101711.34
2022-10-18T09:19:11.826Z,101707.34
2022-10-18T09:21:24.880Z,101706.66
2022-10-18T09:23:44.188Z,101690.50
2022-10-18T09:26:27.891Z,101682.19
2022-10-18T09:28:40.604Z,101698.34
2022-10-18T09:30:49.779Z,101708.72
2022-10-18T09:33:10.791Z,101710.25
2022-10-18T09:35:27.695Z,101702.09
2022-10-18T09:37:34.076Z,101679.88
2022-10-18T09:39:38.276Z,101699.78
2022-10-18T09:42:08.542Z,101696.97
2022-10-18T09:44:14.538Z,101712.97
2022-10-18T09:46:20.159Z,101719.25
2022-10-18T09:48:42.736Z,101717.38
2022-10-18T09:50:50.969Z,101714.72
2022-10-18T09:53:03.909Z,101709.25
2022-10-18T09:55:15.557Z,101720.53
2022-10-18T09:57:40.341Z,101721.44
2022-10-18T09:59:50.031Z,101719.41
2022-10-18T10:01:52.259Z,101718.00
2022-10-18T10:03:54.907Z,101728.59
2022-10-18T10:06:12.674Z,101725.37
2022-10-18T10:08:14.945Z,101716.94
2022-10-18T10:10:17.601Z,101723.00
2022-10-18T10:12:31.472Z,101709.13
2022-10-18T10:14:43.928Z,101720.47
2022-10-18T10:17:05.756Z,101721.66
2022-10-18T10:19:17.236Z,101710.09
2022-10-18T10:21:20.638Z,101712.00
2022-10-18T10:23:32.273Z,101715.69
2022-10-18T10:25:38.172Z,101714.84
2022-10-18T10:27:45.125Z,101712.19
2022-10-18T10:29:47.674Z,101707.56
2022-10-18T10:32:04.001Z,101702.47
2022-10-18T10:34:21.029Z,101699.50
2022-10-18T10:36:23.978Z,101689.78
2022-10-18T10:38:28.892Z,101685.50
2022-10-18T10:40:34.526Z,101685.63
2022-10-18T10:42:49.077Z,101688.41
2022-10-18T10:44:55.395Z,101682.88
2022-10-18T10:46:58.644Z,101681.59
2022-10-18T10:49:34.914Z,101671.19
2022-10-18T10:51:31.069Z,101671.19
2022-10-18T10:53:33.266Z,101656.41
2022-10-18T10:55:36.017Z,101663.22
2022-10-18T10:57:38.501Z,101674.41
2022-10-18T10:59:45.334Z,101673.00
2022-10-18T11:01:52.965Z,101678.47
2022-10-18T11:03:58.229Z,101676.22
2022-10-18T11:06:02.099Z,101672.94
2022-10-18T11:08:05.510Z,101680.69
2022-10-18T11:10:10.702Z,101695.53
2022-10-18T11:12:43.759Z,101703.69
2022-10-18T11:14:52.651Z,101727.22
2022-10-18T11:17:01.178Z,101718.88
2022-10-18T11:19:22.209Z,101713.97
2022-10-18T11:21:30.889Z,101694.50
2022-10-18T11:23:35.652Z,101708.91
2022-10-18T11:25:51.730Z,101706.62
2022-10-18T11:27:57.197Z,101694.37
2022-10-18T11:30:22.052Z,101695.63
2022-10-18T11:33:01.981Z,101684.53
2022-10-18T11:38:31.083Z,101659.66
2022-10-18T11:40:48.897Z,101652.16
2022-10-18T11:42:58.545Z,101648.22
2022-10-18T11:45:26.652Z,101650.13
2022-10-18T11:47:39.050Z,101652.12
2022-10-18T11:49:47.154Z,101669.53
2022-10-18T11:52:10.978Z,101664.13
2022-10-18T11:54:26.518Z,101656.41
2022-10-18T11:56:35.565Z,101650.81
2022-10-18T11:58:42.811Z,101641.31
2022-10-18T12:01:08.032Z,101631.66
2022-10-18T12:03:50.615Z,101623.50
2022-10-18T12:05:55.693Z,101613.59
2022-10-18T12:08:24.029Z,101593.59
2022-10-18T12:10:44.318Z,101570.09
2022-10-18T12:12:57.189Z,101570.34
2022-10-18T12:15:03.577Z,101544.09
2022-10-18T12:17:49.880Z,101540.97
2022-10-18T12:19:56.378Z,101532.84
2022-10-18T12:22:14.472Z,101521.84
2022-10-18T12:24:25.491Z,101516.31
2022-10-18T12:26:29.708Z,101507.97
2022-10-18T12:28:41.363Z,101506.12
2022-10-18T12:30:51.078Z,101506.84
2022-10-18T12:33:26.673Z,101503.50
2022-10-18T12:35:31.853Z,101499.78
2022-10-18T12:38:09.557Z,101494.72
2022-10-18T12:40:22.086Z,101497.19
2022-10-18T12:42:28.573Z,101497.19
2022-10-18T12:44:34.286Z,101486.22
2022-10-18T12:46:45.909Z,101481.28
2022-10-18T12:49:03.961Z,101467.87
2022-10-18T12:51:26.985Z,101470.56
2022-10-18T12:53:29.830Z,101478.00
2022-10-18T12:55:36.914Z,101471.59
2022-10-18T12:57:51.543Z,101463.47
2022-10-18T12:59:53.967Z,101464.22
2022-10-18T13:01:56.405Z,101458.56
2022-10-18T13:03:59.302Z,101456.87
2022-10-18T13:06:05.716Z,101460.09
2022-10-18T13:08:27.645Z,101464.47
2022-10-18T13:10:36.342Z,101461.16
2022-10-18T13:13:35.832Z,101459.38
2022-10-18T13:15:44.306Z,101455.22
2022-10-18T13:18:05.160Z,101444.41
2022-10-18T13:20:26.177Z,101437.66
2022-10-18T13:22:47.226Z,101445.19
2022-10-18T13:25:01.876Z,101449.47
2022-10-18T13:27:43.571Z,101455.31
2022-10-18T13:30:10.633Z,101445.12
2022-10-18T13:32:31.274Z,101443.06
2022-10-18T13:34:38.264Z,101442.00
2022-10-18T13:36:42.365Z,101451.44
2022-10-18T13:38:55.567Z,101445.41
2022-10-18T13:41:05.960Z,101425.69
2022-10-18T13:43:50.165Z,101428.72
2022-10-18T13:45:55.892Z,101419.16
2022-10-18T13:48:41.547Z,101422.56
2022-10-18T13:50:47.657Z,101433.31
2022-10-18T13:52:55.899Z,101419.78
2022-10-18T13:55:16.900Z,101418.00
2022-10-18T13:57:45.070Z,101418.12
2022-10-18T14:00:05.997Z,101410.13
2022-10-18T14:02:42.980Z,101414.00
2022-10-18T14:05:23.731Z,101401.06
2022-10-18T14:07:28.147Z,101391.84
2022-10-18T14:09:52.477Z,101392.94
2022-10-18T14:12:20.427Z,101393.44
2022-10-18T14:14:33.992Z,101380.00
2022-10-18T14:16:46.760Z,101374.97
2022-10-18T14:18:53.628Z,101377.16
2022-10-18T14:21:19.856Z,101378.31
2022-10-18T14:23:44.838Z,101373.50
2022-10-18T14:25:48.486Z,101374.81
2022-10-18T14:28:08.861Z,101364.81
2022-10-18T14:30:19.062Z,101370.72
2022-10-18T14:32:28.424Z,101365.44
2022-10-18T14:34:30.887Z,101365.78
2022-10-18T14:36:51.829Z,101359.37
2022-10-18T14:39:00.625Z,101356.66
2022-10-18T14:41:14.299Z,101353.31
2022-10-18T14:43:20.164Z,101352.59
2022-10-18T14:45:23.913Z,101354.50
2022-10-18T14:47:31.310Z,101348.56
2022-10-18T14:49:36.155Z,101341.25
2022-10-18T14:51:40.937Z,101344.47
2022-10-18T14:53:43.489Z,101334.94
2022-10-18T14:55:54.891Z,101335.56
2022-10-18T14:57:58.475Z,101323.94
2022-10-18T15:00:04.282Z,101326.56
2022-10-18T15:02:16.781Z,101318.44
2022-10-18T15:04:21.760Z,101319.50
2022-10-18T15:06:26.789Z,101308.00
2022-10-18T15:08:37.486Z,101304.75
2022-10-18T15:10:41.014Z,101293.00
2022-10-18T15:13:04.829Z,101290.09
2022-10-18T15:15:15.061Z,101293.19
2022-10-18T15:17:22.670Z,101300.34
2022-10-18T15:19:32.849Z,101304.47
2022-10-18T15:21:36.345Z,101312.97
2022-10-18T15:23:38.913Z,101304.28
2022-10-18T15:25:41.134Z,101296.59
2022-10-18T15:27:55.601Z,101295.56
2022-10-18T15:30:01.780Z,101295.81
2022-10-18T15:32:25.849Z,101286.06
2022-10-18T15:34:28.243Z,101274.97
2022-10-18T15:36:32.506Z,101271.94
2022-10-18T15:38:36.814Z,101274.53
2022-10-18T15:40:40.566Z,101281.25
2022-10-18T15:42:43.299Z,101285.53
2022-10-18T15:44:51.524Z,101286.28
2022-10-18T15:47:12.043Z,101280.44
2022-10-18T15:49:23.913Z,101266.59
2022-10-18T15:51:49.307Z,101264.59
2022-10-18T15:53:54.284Z,101260.09
2022-10-18T15:56:04.458Z,101251.84
2022-10-18T15:58:16.130Z,101256.25
2022-10-18T16:00:20.558Z,101257.44
2022-10-18T16:02:23.167Z,101248.03
2022-10-18T16:04:26.961Z,101259.34
2022-10-18T16:06:29.340Z,101255.03
2022-10-18T16:08:33.337Z,101244.66
2022-10-18T16:10:35.898Z,101238.94
2022-10-18T16:12:38.168Z,101240.03
2022-10-18T16:14:40.685Z,101235.47
2022-10-18T16:16:43.162Z,101236.63
2022-10-18T16:18:48.544Z,101233.75
2022-10-18T16:20:51.143Z,101233.87
2022-10-18T16:22:56.422Z,101245.41
2022-10-18T16:24:58.774Z,101241.59
2022-10-18T16:27:01.389Z,101243.19
2022-10-18T16:29:04.754Z,101239.91
2022-10-18T16:31:08.277Z,101240.44
2022-10-18T16:33:10.959Z,101238.66
2022-10-18T16:35:15.974Z,101235.91
2022-10-18T16:37:18.430Z,101231.13
2022-10-18T16:39:22.246Z,101241.19
2022-10-18T16:47:40.214Z,101242.69
2022-10-18T16:49:46.879Z,101245.44
2022-10-18T16:51:50.334Z,101242.25
2022-10-18T16:53:53.773Z,101248.16
2022-10-18T16:56:01.536Z,101252.09
2022-10-18T16:58:04.027Z,101244.78
2022-10-18T17:00:07.459Z,101245.50
2022-10-18T17:02:17.403Z,101236.94
2022-10-18T17:04:19.971Z,101230.78
2022-10-18T17:06:28.176Z,101225.91
2022-10-18T17:08:30.875Z,101218.78
2022-10-18T17:10:33.936Z,101206.06
2022-10-18T17:12:36.259Z,101209.56
2022-10-18T17:14:38.870Z,101214.97
2022-10-18T17:16:44.467Z,101206.19
2022-10-18T17:18:49.478Z,101203.91
2022-10-18T17:20:52.669Z,101209.25
2022-10-18T17:22:55.116Z,101204.19
2022-10-18T17:24:57.963Z,101204.56
2022-10-18T17:27:00.904Z,101201.19
2022-10-18T17:29:07.014Z,101200.34
2022-10-18T17:31:09.626Z,101202.53
2022-10-18T17:33:14.795Z,101192.63
2022-10-18T17:35:17.346Z,101186.69
2022-10-18T17:37:20.499Z,101185.19
2022-10-18T17:39:23.539Z,101186.72
2022-10-18T17:41:26.294Z,101182.75
2022-10-18T17:43:29.056Z,101181.19
2022-10-18T17:45:33.193Z,101165.16
2022-10-18T17:47:35.694Z,101150.41
2022-10-18T17:49:38.675Z,101156.53
2022-10-18T17:51:43.215Z,101161.41
2022-10-18T17:53:48.372Z,101159.78
2022-10-18T17:55:51.253Z,101147.66
2022-10-18T17:57:53.879Z,101163.72
2022-10-18T17:59:57.012Z,101161.66
2022-10-18T18:01:59.779Z,101159.13
2022-10-18T18:04:03.930Z,101156.56
2022-10-18T18:06:21.995Z,101159.22
2022-10-18T18:08:25.968Z,101161.75
2022-10-18T18:10:30.111Z,101162.59
2022-10-18T18:12:33.113Z,101166.47
2022-10-18T18:14:35.988Z,101176.16
2022-10-18T18:16:41.693Z,101172.69
2022-10-18T18:18:45.529Z,101169.00
2022-10-18T18:20:55.022Z,101171.41
2022-10-18T18:22:58.640Z,101178.75
2022-10-18T18:25:01.390Z,101176.75
2022-10-18T18:27:04.274Z,101165.94
2022-10-18T18:29:08.829Z,101165.09
2022-10-18T18:31:14.632Z,101151.63
2022-10-18T18:33:17.306Z,101160.31
2022-10-18T18:35:20.234Z,101163.19
2022-10-18T18:37:22.916Z,101160.84
2022-10-18T18:39:29.714Z,101151.28
2022-10-18T18:41:33.047Z,101143.38
2022-10-18T18:43:36.676Z,101152.03
2022-10-18T18:45:39.374Z,101146.56
2022-10-18T18:47:42.463Z,101152.41
2022-10-18T18:49:45.324Z,101143.00
2022-10-18T18:51:48.612Z,101141.13
2022-10-18T18:53:52.780Z,101133.13
2022-10-18T18:55:55.623Z,101131.59
2022-10-18T18:57:58.343Z,101128.69
2022-10-18T19:00:01.315Z,101128.03
2022-10-18T19:02:03.630Z,101122.59
2022-10-18T19:04:07.564Z,101127.56
2022-10-18T19:06:17.802Z,101133.22
2022-10-18T19:08:20.024Z,101128.50
2022-10-18T19:10:25.522Z,101125.13
2022-10-18T19:12:28.616Z,101129.72
2022-10-18T19:14:31.212Z,101122.69
2022-10-18T19:17:01.615Z,101133.59
2022-10-18T19:19:10.479Z,101132.94
2022-10-18T19:21:13.198Z,101130.19
2022-10-18T19:23:16.027Z,101123.41
2022-10-18T19:25:21.120Z,101118.16
2022-10-18T19:27:26.162Z,101119.19
2022-10-18T19:29:34.169Z,101125.00
2022-10-18T19:31:38.078Z,101117.78
2022-10-18T19:33:55.670Z,101116.44
2022-10-18T19:36:01.293Z,101109.22
2022-10-18T19:38:04.269Z,101117.47
2022-10-18T19:40:10.739Z,101111.94
2022-10-18T19:42:17.471Z,101118.34
2022-10-18T19:44:25.748Z,101113.00
2022-10-18T19:46:28.591Z,101114.94
2022-10-18T19:48:31.152Z,101110.06
2022-10-18T19:50:35.188Z,101108.16
2022-10-18T19:52:37.902Z,101104.81
2022-10-18T19:54:40.792Z,101099.59
2022-10-18T19:56:43.852Z,101098.00
2022-10-18T19:58:46.791Z,101104.22
2022-10-18T20:00:53.097Z,101101.41
2022-10-18T20:02:56.028Z,101096.06
2022-10-18T20:04:58.652Z,101099.13
2022-10-18T20:07:02.814Z,101093.78
2022-10-18T20:09:07.411Z,101093.28
2022-10-18T20:11:16.720Z,101088.59
2022-10-18T20:13:19.398Z,101093.47
2022-10-18T20:15:22.090Z,101087.63
2022-10-18T20:17:24.326Z,101082.75
2022-10-18T20:19:26.911Z,101081.94
2022-10-18T20:21:31.751Z,101081.59
2022-10-18T20:23:37.915Z,101075.44
2022-10-18T20:25:40.138Z,101070.38
2022-10-18T20:27:42.651Z,101066.09
2022-10-18T20:29:45.064Z,101063.00
2022-10-18T20:31:47.677Z,101063.16
2022-10-18T20:33:56.287Z,101067.37
2022-10-18T20:36:06.037Z,101071.72
2022-10-18T20:38:08.226Z,101074.09
2022-10-18T20:40:11.751Z,101068.91
2022-10-18T20:42:13.993Z,101061.16
2022-10-18T20:44:19.297Z,101054.78
2022-10-18T20:46:22.412Z,101053.94
2022-10-18T20:48:26.088Z,101052.88
2022-10-18T20:50:28.316Z,101056.56
2022-10-18T20:52:31.033Z,101043.00
2022-10-18T20:54:33.329Z,101040.66
2022-10-18T20:56:36.632Z,101032.69
2022-10-18T20:58:40.512Z,101033.56
2022-10-18T21:00:42.800Z,101039.50
2022-10-18T21:02:45.043Z,101033.47
2022-10-18T21:04:47.798Z,101027.25
2022-10-18T21:06:50.013Z,101027.16
2022-10-18T21:08:57.454Z,101030.34
2022-10-18T21:11:01.151Z,101019.16
2022-10-18T21:13:03.461Z,101016.75
2022-10-18T21:15:06.706Z,101018.88
2022-10-18T21:17:09.539Z,101016.06
2022-10-18T21:19:17.702Z,101013.63
2022-10-18T21:21:24.063Z,101010.81
2022-10-18T21:23:26.636Z,101010.41
2022-10-18T21:25:28.871Z,101005.59
2022-10-18T21:27:31.102Z,101010.50
2022-10-18T21:29:33.642Z,101011.03
2022-10-18T21:31:39.248Z,101027.53
2022-10-18T21:33:42.610Z,101033.91
2022-10-18T21:35:45.141Z,101035.59
2022-10-18T21:37:47.355Z,101036.63
2022-10-18T21:39:49.561Z,101033.13
2022-10-18T21:41:52.053Z,101022.41
2022-10-18T21:43:55.122Z,101021.47
2022-10-18T21:45:59.339Z,101017.28
2022-10-18T21:48:03.703Z,101012.34
2022-10-18T21:50:06.408Z,100992.38
2022-10-18T21:52:08.638Z,100990.00
2022-10-18T21:54:14.225Z,100985.34
2022-10-18T21:56:18.900Z,100976.84
2022-10-18T21:58:21.135Z,100970.69
2022-10-18T22:00:24.014Z,100966.44
2022-10-18T22:02:26.587Z,100962.41
2022-10-18T22:04:29.012Z,100961.50
2022-10-18T22:06:36.825Z,100967.16
2022-10-18T22:08:50.333Z,100970.69
2022-10-18T22:10:52.567Z,100960.69
2022-10-18T22:12:57.711Z,100961.12
2022-10-18T22:15:00.417Z,100961.38
